Time;durP1;ratioP1;P1;durP2;ratioP2;P2;SDS_P1;SDS_P2;PMS_P1;PMS_P2;Temp;Humidity;BMP_temperature;BMP_pressure;BME280_temperature;BME280_humidity;BME280_pressure;Samples;Min_cycle;Max_cycle;Signal;HPM_P1;HPM_P2
2022/05/14 00:02:22;;;;;;;11.12;3.55;;;;;;;10.92;67.50;101080.98;1762211;78;21265;-87
2022/05/14 00:04:51;;;;;;;12.85;3.55;;;;;;;11.04;67.56;101083.55;1726331;82;21521;-87
2022/05/14 00:07:18;;;;;;;8.23;3.20;;;;;;;11.15;67.49;101077.27;1716023;80;21085;-87
2022/05/14 00:09:45;;;;;;;19.07;4.37;;;;;;;11.29;67.46;101087.75;1748062;81;21093;-88
2022/05/14 00:14:57;;;;;;;10.78;3.58;;;;;;;11.54;67.30;101092.80;1746296;82;21050;-89
2022/05/14 00:17:25;;;;;;;9.13;3.77;;;;;;;11.66;67.38;101091.37;1801854;78;21421;-89
2022/05/14 00:19:52;;;;;;;12.15;3.70;;;;;;;11.76;67.52;101091.61;1813585;79;21568;-88
2022/05/14 00:22:19;;;;;;;10.20;4.05;;;;;;;11.84;67.67;101091.37;1781261;78;21035;-88
2022/05/14 00:24:53;;;;;;;10.63;3.42;;;;;;;11.90;67.81;101083.67;1779347;79;21391;-88
2022/05/14 00:27:30;;;;;;;9.48;3.02;;;;;;;11.96;67.85;101086.89;1803932;77;21026;-87
2022/05/14 00:29:57;;;;;;;8.78;3.25;;;;;;;11.99;67.87;101081.27;1779568;79;21062;-89
2022/05/14 00:32:25;;;;;;;9.88;3.42;;;;;;;12.03;67.95;101084.84;1776342;79;21596;-87
2022/05/14 00:34:58;;;;;;;9.13;3.22;;;;;;;12.05;67.87;101078.77;1789717;79;21020;-89
2022/05/14 00:37:27;;;;;;;9.43;3.85;;;;;;;12.05;67.81;101080.08;1811942;79;21656;-89
2022/05/14 00:39:59;;;;;;;9.68;3.40;;;;;;;12.08;67.87;101084.53;1804324;78;21600;-88
2022/05/14 00:42:27;;;;;;;12.58;3.37;;;;;;;12.07;67.82;101074.84;1813516;78;21607;-88
2022/05/14 00:44:54;;;;;;;9.90;3.25;;;;;;;12.11;67.80;101080.66;1826230;78;21066;-89
2022/05/14 00:47:23;;;;;;;8.80;3.42;;;;;;;12.14;67.95;101075.87;1780975;80;21043;-86
2022/05/14 00:49:50;;;;;;;10.60;3.45;;;;;;;12.16;67.88;101079.43;1802457;79;21978;-86
2022/05/14 00:52:22;;;;;;;7.85;3.15;;;;;;;12.17;67.93;101074.63;1810285;79;21537;-89
2022/05/14 00:55:00;;;;;;;11.08;3.45;;;;;;;12.20;67.90;101076.00;1783470;78;21234;-87
2022/05/14 00:57:41;;;;;;;11.22;4.15;;;;;;;12.21;67.84;101072.52;1773099;80;21118;-87
2022/05/14 01:00:15;;;;;;;11.12;3.62;;;;;;;12.21;67.86;101077.80;1774660;80;21069;-86
2022/05/14 01:02:46;;;;;;;;;;;;;;;12.21;67.83;101076.05;1778485;79;21841;-87
2022/05/14 01:05:18;;;;;;;8.95;3.17;;;;;;;12.23;67.99;101066.84;1806741;78;20189;-88
2022/05/14 01:07:45;;;;;;;12.35;3.55;;;;;;;12.25;67.82;101069.98;1819177;78;21550;-88
2022/05/14 01:10:18;;;;;;;8.48;3.25;;;;;;;12.28;67.84;101066.54;1823751;77;21436;-87
2022/05/14 01:12:51;;;;;;;10.38;2.60;;;;;;;12.29;67.82;101066.98;1817092;78;21118;-87
2022/05/14 01:15:21;;;;;;;10.00;2.95;;;;;;;12.31;67.80;101062.62;1827302;78;21777;-88
2022/05/14 01:17:48;;;;;;;8.50;2.72;;;;;;;12.34;67.81;101061.83;1807960;78;21050;-89
2022/05/14 01:20:15;;;;;;;10.75;2.90;;;;;;;12.35;67.83;101063.19;1783470;78;21007;-88
2022/05/14 01:23:21;;;;;;;9.15;2.92;;;;;;;12.38;67.81;101066.31;1778335;79;21115;-88
2022/05/14 01:28:54;;;;;;;10.32;3.75;;;;;;;12.38;67.81;101055.31;1760995;81;21795;-88
2022/05/14 01:31:53;;;;;;;8.65;3.37;;;;;;;12.39;67.84;101060.19;1740250;81;21583;-87
2022/05/14 01:34:28;;;;;;;7.87;2.87;;;;;;;12.38;67.81;101058.39;1735699;82;21078;-87
2022/05/14 01:37:00;;;;;;;5.55;2.80;;;;;;;12.38;67.81;101055.75;1737181;82;21079;-87
2022/05/14 01:39:28;;;;;;;5.75;2.65;;;;;;;12.38;67.86;101057.07;1759046;80;21069;-88
2022/05/14 01:41:57;;;;;;;6.83;2.83;;;;;;;12.37;67.88;101056.59;1773445;80;21702;-88
2022/05/14 01:44:24;;;;;;;5.12;2.47;;;;;;;12.38;67.86;101061.03;1755259;80;21110;-88
2022/05/14 01:46:57;;;;;;;7.45;3.20;;;;;;;12.39;67.91;101061.52;1759555;81;21087;-87
2022/05/14 01:49:23;;;;;;;6.25;3.02;;;;;;;12.37;67.86;101061.47;1767715;81;21070;-88
2022/05/14 01:51:50;;;;;;;12.98;3.15;;;;;;;12.38;67.88;101057.07;1762835;80;21123;-87
2022/05/14 01:54:17;;;;;;;9.35;3.33;;;;;;;12.38;67.97;101063.23;1763619;80;21793;-85
2022/05/14 01:57:19;;;;;;;7.78;3.15;;;;;;;12.40;67.99;101064.16;1774620;80;21165;-86
2022/05/14 01:59:55;;;;;;;11.40;3.47;;;;;;;12.42;67.99;101067.72;1774487;80;21972;-88
2022/05/14 02:02:22;;;;;;;11.40;3.62;;;;;;;12.42;67.98;101069.05;1775492;80;21054;-86
2022/05/14 02:04:53;;;;;;;7.92;2.72;;;;;;;12.42;67.98;101070.80;1794981;78;21031;-85
2022/05/14 02:07:22;;;;;;;9.63;3.00;;;;;;;12.41;68.00;101069.03;1807380;79;22629;-85
2022/05/14 02:09:50;;;;;;;8.15;3.02;;;;;;;12.41;68.02;101065.95;1807881;79;20980;-86
2022/05/14 02:12:18;;;;;;;7.22;2.92;;;;;;;12.42;68.06;101062.44;1784663;78;21047;-87
2022/05/14 02:14:45;;;;;;;9.73;2.92;;;;;;;12.42;68.10;101059.80;1828079;78;21013;-87
2022/05/14 02:17:13;;;;;;;10.30;3.20;;;;;;;12.42;68.09;101057.16;1795812;78;21321;-87
2022/05/14 02:19:40;;;;;;;11.65;2.75;;;;;;;12.45;68.13;101059.00;1818871;78;21748;-86
2022/05/14 02:22:10;;;;;;;7.70;2.60;;;;;;;12.47;68.19;101061.24;1807483;79;21050;-86
2022/05/14 02:24:38;;;;;;;9.40;3.00;;;;;;;12.48;68.18;101049.84;1804423;78;21008;-88
2022/05/14 02:27:07;;;;;;;10.63;3.25;;;;;;;12.49;68.19;101047.64;1803573;78;21550;-88
2022/05/14 02:29:54;;;;;;;8.93;2.95;;;;;;;12.49;68.19;101044.12;1789589;78;21070;-86
2022/05/14 02:32:24;;;;;;;9.03;3.00;;;;;;;12.49;68.25;101039.72;1795517;79;21767;-85
2022/05/14 02:34:57;;;;;;;7.47;2.92;;;;;;;12.49;68.24;101032.23;1808043;78;21512;-88
2022/05/14 02:37:25;;;;;;;9.15;2.98;;;;;;;12.47;68.25;101026.92;1817064;78;21031;-85
2022/05/14 02:40:14;;;;;;;8.30;3.17;;;;;;;12.44;68.23;101026.44;1806216;78;21060;-88
2022/05/14 02:42:40;;;;;;;9.30;3.17;;;;;;;12.41;68.28;101010.95;1778871;79;21030;-85
2022/05/14 02:45:09;;;;;;;10.25;2.92;;;;;;;12.38;68.30;101005.59;1802106;79;21394;-88
2022/05/14 02:47:37;;;;;;;12.70;3.00;;;;;;;12.32;68.20;101007.67;1788730;78;21658;-88
2022/05/14 02:50:05;;;;;;;7.35;2.95;;;;;;;12.24;68.22;101004.87;1774999;78;21572;-85
2022/05/14 02:52:33;;;;;;;7.12;2.50;;;;;;;12.15;68.24;101007.73;1791132;78;21329;-89
2022/05/14 02:54:59;;;;;;;8.85;3.08;;;;;;;12.05;68.34;101008.84;1784405;78;21031;-86
2022/05/14 02:57:26;;;;;;;8.98;3.25;;;;;;;11.97;68.48;101012.14;1806596;78;21763;-85
2022/05/14 02:59:53;;;;;;;10.72;3.10;;;;;;;11.90;68.62;101020.77;1804586;78;21070;-85
2022/05/14 03:02:20;;;;;;;6.72;3.17;;;;;;;11.86;68.77;101024.63;1774916;78;21078;-86
2022/05/14 03:04:48;;;;;;;9.18;3.47;;;;;;;11.82;68.85;101026.73;1792003;79;20999;-88
2022/05/14 03:07:18;;;;;;;9.00;3.08;;;;;;;11.79;69.02;101025.34;1776153;79;21046;-87
2022/05/14 03:09:45;;;;;;;10.82;4.05;;;;;;;11.80;69.12;101023.14;1775559;80;22566;-88
2022/05/14 03:12:24;;;;;;;7.78;3.52;;;;;;;11.79;69.16;101016.11;1787622;78;20999;-88
2022/05/14 03:15:01;;;;;;;5.92;2.62;;;;;;;11.77;69.16;101016.90;1816866;78;21090;-88
2022/05/14 03:17:27;;;;;;;7.12;3.22;;;;;;;11.72;69.18;101018.12;1795242;78;21061;-85
2022/05/14 03:20:09;;;;;;;7.33;3.30;;;;;;;11.67;69.25;101013.16;1803154;78;21093;-86
2022/05/14 03:22:38;;;;;;;10.18;3.47;;;;;;;11.65;69.38;101024.09;1785038;79;21908;-90
2022/05/14 03:25:09;;;;;;;9.18;3.33;;;;;;;11.64;69.48;101023.64;1805921;79;21056;-88
2022/05/14 03:27:36;;;;;;;6.05;3.25;;;;;;;11.64;69.56;101017.94;1806098;79;21684;-88
2022/05/14 03:30:04;;;;;;;10.93;3.87;;;;;;;11.68;69.71;101016.27;1794677;78;21058;-89
2022/05/14 03:32:49;;;;;;;8.58;3.45;;;;;;;11.80;69.96;101024.46;1776417;79;21066;-89
2022/05/14 03:35:21;;;;;;;11.43;3.10;;;;;;;12.36;71.08;101018.76;1775743;79;22573;-88
2022/05/14 03:37:48;;;;;;;10.50;3.60;;;;;;;13.50;71.42;101016.18;1790244;79;21541;-88
2022/05/14 03:40:26;;;;;;;8.03;3.10;;;;;;;14.65;70.62;101015.70;1807711;78;21015;-89
2022/05/14 03:42:53;;;;;;;8.53;3.00;;;;;;;15.77;69.36;101012.91;1823931;78;21650;-86
2022/05/14 03:45:20;;;;;;;7.58;2.77;;;;;;;16.43;66.61;101002.70;1808298;78;21512;-87
2022/05/14 03:47:47;;;;;;;10.88;3.12;;;;;;;16.52;66.22;101007.19;1808146;78;21718;-87
2022/05/14 03:50:14;;;;;;;6.83;2.50;;;;;;;17.06;65.00;101018.02;1807406;79;21042;-85
2022/05/14 03:52:41;;;;;;;7.65;3.00;;;;;;;16.68;63.29;101019.63;1812724;78;21062;-88
2022/05/14 03:55:14;;;;;;;8.83;3.02;;;;;;;16.14;62.91;101010.48;1807253;79;21196;-89
2022/05/14 03:57:41;;;;;;;7.75;2.90;;;;;;;15.70;62.88;101013.25;1808216;79;21047;-86
2022/05/14 04:00:11;;;;;;;5.60;2.10;;;;;;;15.30;62.84;101012.02;1811057;78;21825;-87
2022/05/14 04:02:44;;;;;;;27.73;17.32;;;;;;;14.98;63.00;101011.25;1819333;78;21019;-87
2022/05/14 04:05:27;;;;;;;9.53;3.85;;;;;;;14.67;63.13;101013.96;1801482;78;21086;-87
2022/05/14 04:07:54;;;;;;;8.55;2.98;;;;;;;14.41;63.46;101011.82;1802281;79;21620;-88
2022/05/14 04:10:21;;;;;;;8.00;2.90;;;;;;;14.18;63.60;101005.77;1799637;77;21094;-88
2022/05/14 04:12:47;;;;;;;9.10;3.12;;;;;;;13.99;63.84;101004.62;1806411;78;22648;-86
2022/05/14 04:15:14;;;;;;;10.60;5.33;;;;;;;13.84;64.07;100999.09;1794447;77;21019;-86
2022/05/14 04:17:41;;;;;;;10.72;3.27;;;;;;;13.71;64.30;101005.95;1804553;77;21039;-87
2022/05/14 04:20:09;;;;;;;7.15;2.58;;;;;;;13.60;64.36;101003.11;1793658;78;21050;-91
2022/05/14 04:22:56;;;;;;;7.80;2.85;;;;;;;13.52;64.52;101003.43;1795891;77;21054;-92
2022/05/14 04:25:25;;;;;;;12.30;3.40;;;;;;;13.48;64.66;101006.89;1806482;79;20960;-90
2022/05/14 04:27:52;;;;;;;10.35;5.95;;;;;;;13.44;64.76;101010.77;1823090;78;21036;-92
2022/05/14 04:30:49;;;;;;;11.88;4.30;;;;;;;13.44;64.76;101007.71;1808368;78;21004;-89
2022/05/14 04:33:29;;;;;;;11.60;3.17;;;;;;;13.45;64.80;101005.50;1808177;78;21044;-91
2022/05/14 04:35:56;;;;;;;11.80;2.85;;;;;;;13.55;64.90;100998.20;1808096;78;20984;-88
2022/05/14 04:38:25;;;;;;;8.13;3.02;;;;;;;13.65;64.75;101003.65;1833853;77;21700;-88
2022/05/14 04:40:51;;;;;;;13.28;7.78;;;;;;;13.60;64.58;101000.91;1835621;78;20983;-89
2022/05/14 04:43:18;;;;;;;16.82;7.28;;;;;;;13.76;64.36;101013.97;1835419;77;21018;-87
2022/05/14 04:45:44;;;;;;;8.70;3.67;;;;;;;13.78;64.20;101010.91;1811655;78;21030;-89
2022/05/14 04:48:11;;;;;;;10.60;3.70;;;;;;;13.78;63.94;101011.80;1810265;78;21025;-89
2022/05/14 04:50:38;;;;;;;8.18;3.05;;;;;;;13.77;63.71;101013.97;1808307;79;21683;-88
2022/05/14 04:53:06;;;;;;;13.75;2.90;;;;;;;13.76;63.56;101014.86;1780480;77;21415;-87
2022/05/14 04:55:33;;;;;;;11.90;3.25;;;;;;;13.76;63.47;101012.65;1806773;77;21062;-87
2022/05/14 04:57:59;;;;;;;12.18;2.90;;;;;;;13.75;63.30;101017.47;1786709;79;21077;-86
2022/05/14 05:00:28;;;;;;;17.73;5.92;;;;;;;13.71;63.25;101019.17;1763692;81;21014;-88
2022/05/14 05:05:57;;;;;;;15.03;4.00;;;;;;;13.69;63.02;101018.26;1766667;80;21110;-89
2022/05/14 05:08:25;;;;;;;7.83;3.65;;;;;;;13.67;62.78;101014.70;1793898;79;21082;-87
2022/05/14 05:10:53;;;;;;;13.20;3.42;;;;;;;13.69;62.75;101016.05;1807921;78;21071;-86
2022/05/14 05:13:22;;;;;;;13.00;3.58;;;;;;;13.70;62.66;101014.77;1807741;78;21086;-88
2022/05/14 05:15:49;;;;;;;14.70;3.42;;;;;;;13.74;62.62;101009.97;1807860;78;22591;-85
2022/05/14 05:18:16;;;;;;;12.03;3.65;;;;;;;13.77;62.58;100998.09;1807332;78;21039;-88
2022/05/14 05:20:44;;;;;;;13.90;3.52;;;;;;;13.84;62.47;101013.65;1808137;78;22363;-88
2022/05/14 05:23:18;;;;;;;12.07;3.55;;;;;;;13.91;62.29;101020.83;1816099;77;21062;-87
2022/05/14 05:25:45;;;;;;;12.40;3.05;;;;;;;14.08;62.44;101019.76;1784750;77;21058;-88
2022/05/14 05:28:12;;;;;;;14.95;3.37;;;;;;;15.33;64.68;101015.59;1793798;77;21815;-88
2022/05/14 05:30:40;;;;;;;13.00;3.10;;;;;;;18.10;64.22;101007.02;1808187;78;21540;-87
2022/05/14 05:33:13;;;;;;;8.88;3.10;;;;;;;20.40;61.39;100995.28;1796805;77;21074;-85
2022/05/14 05:35:40;;;;;;;11.78;2.98;;;;;;;20.96;57.00;100989.69;1798878;77;21477;-87
2022/05/14 05:38:06;;;;;;;7.92;2.85;;;;;;;20.46;54.97;100983.63;1775752;79;21064;-85
2022/05/14 05:40:33;;;;;;;9.90;3.10;;;;;;;19.99;54.49;100988.63;1732209;81;21745;-89
2022/05/14 05:43:00;;;;;;;8.58;3.45;;;;;;;19.64;53.84;100991.13;1782109;78;21089;-91
2022/05/14 05:45:27;;;;;;;14.90;3.37;;;;;;;19.21;53.54;100988.80;1782498;79;21042;-91
2022/05/14 05:47:54;;;;;;;13.60;3.85;;;;;;;18.95;53.49;100984.95;1808392;78;21019;-93
2022/05/14 05:50:20;;;;;;;9.55;2.85;;;;;;;18.81;53.36;100994.38;1810262;78;21031;-85
2022/05/14 05:52:50;;;;;;;11.97;3.67;;;;;;;18.94;53.22;100985.83;1819761;78;21751;-86
2022/05/14 06:01:52;;;;;;;10.28;2.72;;;;;;;18.82;52.00;100996.13;1781843;80;21253;-88
2022/05/14 06:04:30;;;;;;;6.97;3.25;;;;;;;18.32;51.64;101007.84;1835328;77;21014;-95
2022/05/14 06:10:35;;;;;;;9.93;3.10;;;;;;;17.78;51.84;101003.92;1847483;77;21012;-90
2022/05/14 06:13:05;;;;;;;10.03;3.10;;;;;;;17.44;52.06;101002.14;1847050;77;21031;-89
2022/05/14 06:15:31;;;;;;;12.15;3.67;;;;;;;17.21;52.00;101007.44;1843004;77;21549;-87
2022/05/14 06:18:01;;;;;;;12.95;3.90;;;;;;;16.93;51.75;101015.80;1784189;77;21051;-85
2022/05/14 06:20:29;;;;;;;13.05;3.85;;;;;;;16.67;52.18;101015.66;1776337;78;21911;-88
2022/05/14 06:22:56;;;;;;;12.65;3.40;;;;;;;16.57;52.40;101013.83;1828649;78;21509;-87
2022/05/14 06:25:23;;;;;;;15.58;4.62;;;;;;;16.49;52.51;101017.78;1813341;78;21117;-87
2022/05/14 06:27:53;;;;;;;11.55;3.52;;;;;;;16.41;52.65;101016.87;1801830;79;21261;-86
2022/05/14 06:30:21;;;;;;;9.93;3.75;;;;;;;16.36;52.65;101017.27;1812953;78;21066;-88
2022/05/14 06:32:49;;;;;;;12.05;3.50;;;;;;;16.32;52.71;101015.92;1788761;78;21058;-88
2022/05/14 06:35:16;;;;;;;11.30;4.17;;;;;;;16.34;52.89;101014.61;1812243;79;21006;-88
2022/05/14 06:37:45;;;;;;;13.05;5.60;;;;;;;16.37;52.91;101017.70;1813289;78;21501;-88
2022/05/14 06:40:18;;;;;;;13.98;4.40;;;;;;;16.40;52.92;101016.41;1812770;78;21015;-87
2022/05/14 06:42:46;;;;;;;19.33;4.50;;;;;;;16.37;52.78;101007.98;1810119;78;21047;-87
2022/05/14 06:45:13;;;;;;;15.35;4.85;;;;;;;16.35;52.87;101017.72;1807960;79;21811;-88
2022/05/14 06:47:40;;;;;;;9.13;3.33;;;;;;;16.30;52.73;101012.37;1805931;79;21088;-87
2022/05/14 06:50:07;;;;;;;11.53;3.20;;;;;;;16.26;52.92;101016.34;1802314;79;21086;-88
2022/05/14 06:52:34;;;;;;;10.45;3.65;;;;;;;16.27;53.01;101008.80;1796207;78;21059;-86
2022/05/14 06:59:03;;;;;;;11.38;3.60;;;;;;;16.45;53.08;101005.37;1735834;81;21674;-87
2022/05/14 07:01:29;;;;;;;11.03;4.33;;;;;;;16.63;52.79;101009.86;1737183;82;21155;-86
2022/05/14 07:06:55;;;;;;;11.10;3.83;;;;;;;16.74;52.69;101012.57;1752271;81;21162;-91
2022/05/14 07:09:26;;;;;;;16.23;3.58;;;;;;;16.69;52.73;101013.45;1749896;82;21065;-89
2022/05/14 07:11:57;;;;;;;24.65;16.07;;;;;;;16.62;53.07;101004.12;1747440;82;22380;-87
2022/05/14 07:14:31;;;;;;;16.62;5.37;;;;;;;16.64;53.34;101006.34;1720544;83;21071;-88
2022/05/14 07:16:59;;;;;;;13.98;4.00;;;;;;;16.76;53.63;101005.48;1712700;82;21078;-87
2022/05/14 07:19:26;;;;;;;11.18;3.58;;;;;;;16.96;53.64;101008.25;1736684;82;21089;-87
2022/05/14 07:21:54;;;;;;;11.00;3.75;;;;;;;17.13;53.40;101004.31;1736888;82;21312;-87
2022/05/14 07:24:24;;;;;;;14.18;3.65;;;;;;;17.24;53.13;101016.73;1736710;82;22535;-87
2022/05/14 07:26:51;;;;;;;14.98;3.37;;;;;;;17.24;53.14;101011.87;1694024;82;21469;-88
2022/05/14 07:29:25;;;;;;;13.58;3.98;;;;;;;17.18;53.03;101011.86;1746027;78;21083;-87
2022/05/14 07:31:55;;;;;;;10.48;3.65;;;;;;;17.14;53.43;101014.08;1794432;78;21030;-91
2022/05/14 07:34:29;;;;;;;14.30;3.50;;;;;;;17.06;53.26;101018.02;1810468;79;21048;-92
2022/05/14 07:37:38;;;;;;;10.78;3.40;;;;;;;16.83;53.40;101014.85;1812834;79;22618;-90
2022/05/14 07:40:08;;;;;;;11.35;3.62;;;;;;;16.61;53.84;101026.24;1782213;78;21524;-89
2022/05/14 07:42:57;;;;;;;11.43;3.72;;;;;;;16.39;54.17;101028.81;1803666;78;21228;-87
2022/05/14 07:45:31;;;;;;;13.88;4.80;;;;;;;16.30;54.69;101024.32;1810856;78;21051;-89
2022/05/14 07:47:58;;;;;;;11.60;3.10;;;;;;;16.44;55.15;101027.48;1778299;79;27785;-90
2022/05/14 07:50:35;;;;;;;11.33;3.33;;;;;;;16.55;55.19;101022.23;1781136;79;21743;-91
2022/05/14 07:53:09;;;;;;;10.75;3.42;;;;;;;16.58;55.26;101026.25;1770299;80;21723;-91
2022/05/14 07:56:26;;;;;;;10.30;3.72;;;;;;;16.50;55.40;101022.23;1781696;80;21082;-96
2022/05/14 07:59:08;;;;;;;11.10;3.60;;;;;;;16.44;55.59;101035.05;1747587;79;21082;-92
2022/05/14 08:01:43;;;;;;;10.68;3.90;;;;;;;16.25;55.79;101034.47;1740030;81;21034;-94
2022/05/14 08:04:16;;;;;;;11.43;3.98;;;;;;;16.19;56.15;101034.44;1627775;87;21857;-90
2022/05/14 08:06:43;;;;;;;15.00;3.98;;;;;;;16.16;56.21;101033.99;1636219;87;21136;-90
2022/05/14 08:09:12;;;;;;;14.45;4.08;;;;;;;16.21;56.29;101030.91;1644344;85;21066;-90
2022/05/14 08:11:40;;;;;;;13.88;4.22;;;;;;;16.25;56.44;101033.14;1662116;85;21108;-90
2022/05/14 08:14:09;;;;;;;11.40;4.05;;;;;;;16.25;56.60;101033.14;1608587;87;21077;-88
2022/05/14 08:17:45;;;;;;;13.20;4.22;;;;;;;16.26;56.68;101021.66;1611288;87;22556;-90
2022/05/14 08:20:21;;;;;;;10.85;4.70;;;;;;;16.25;56.67;101028.70;1609831;88;21133;-93
2022/05/14 08:25:34;;;;;;;11.38;4.80;;;;;;;16.14;57.00;101035.72;1646491;86;21159;-91
2022/05/14 08:28:01;;;;;;;13.38;4.30;;;;;;;16.08;57.04;101026.39;1644021;86;21096;-90
2022/05/14 08:30:33;;;;;;;13.13;4.12;;;;;;;16.08;57.56;101021.08;1622830;87;22658;-91
2022/05/14 08:33:00;;;;;;;12.47;4.05;;;;;;;16.26;57.91;101021.66;1645049;86;21129;-87
2022/05/14 08:35:28;;;;;;;13.18;4.85;;;;;;;16.64;57.76;101019.63;1641218;87;21140;-90
2022/05/14 08:38:36;;;;;;;13.43;4.17;;;;;;;16.94;57.64;101018.00;1624327;87;21018;-95
2022/05/14 08:41:06;;;;;;;9.48;3.70;;;;;;;17.32;57.52;101026.51;1655909;81;21834;-88
2022/05/14 08:43:49;;;;;;;10.40;3.45;;;;;;;17.75;56.45;101017.22;1694310;83;21784;-90
2022/05/14 08:46:25;;;;;;;13.13;3.60;;;;;;;17.71;55.87;100987.05;1699136;84;21059;-91
2022/05/14 08:49:10;;;;;;;15.28;4.37;;;;;;;17.92;55.67;101010.59;1693398;83;21107;-89
2022/05/14 08:51:49;;;;;;;16.35;4.55;;;;;;;18.05;55.38;101017.22;1708519;83;21032;-90
2022/05/14 08:54:18;;;;;;;14.15;4.22;;;;;;;18.29;55.27;101018.07;1741531;81;21041;-91
2022/05/14 08:57:17;;;;;;;15.15;4.42;;;;;;;18.65;55.29;101014.39;1765795;81;21778;-86
2022/05/14 08:59:52;;;;;;;14.55;3.55;;;;;;;19.01;54.61;101017.83;1768205;79;21049;-93
2022/05/14 09:02:50;;;;;;;9.48;3.20;;;;;;;19.28;53.83;101014.55;1749879;81;21015;-90
2022/05/14 09:05:30;;;;;;;9.18;3.62;;;;;;;19.42;53.24;101013.11;1793136;79;21006;-89
2022/05/14 09:08:07;;;;;;;12.75;3.52;;;;;;;19.64;52.84;101013.83;1758598;79;21006;-90
2022/05/14 09:10:38;;;;;;;11.15;3.40;;;;;;;19.59;52.23;101024.53;1788223;79;21754;-88
2022/05/14 09:13:19;;;;;;;8.43;3.92;;;;;;;19.29;51.87;101030.11;1773269;79;21108;-89
2022/05/14 09:16:04;;;;;;;11.30;4.28;;;;;;;18.94;51.75;101035.18;1797262;79;21027;-92
2022/05/14 09:18:34;;;;;;;;;;;;;;;18.53;51.67;101041.56;1792913;79;21038;-90
2022/05/14 09:21:06;;;;;;;11.22;3.08;;;;;;;18.24;52.10;101029.18;1767211;79;20160;-90
2022/05/14 09:23:46;;;;;;;10.65;4.10;;;;;;;18.25;52.35;101045.17;1789460;78;21813;-89
2022/05/14 09:26:35;;;;;;;15.93;4.28;;;;;;;18.32;52.37;101041.15;1795051;79;21034;-91
2022/05/14 09:29:31;;;;;;;11.15;3.77;;;;;;;18.50;52.35;101046.89;1796270;79;21065;-92
2022/05/14 09:32:08;;;;;;;13.68;4.28;;;;;;;18.45;52.11;101052.25;1780177;79;21081;-87
2022/05/14 09:34:35;;;;;;;16.20;3.52;;;;;;;18.32;51.81;101054.47;1796833;77;21042;-87
2022/05/14 09:37:09;;;;;;;11.40;3.52;;;;;;;17.99;51.80;101045.66;1744591;80;21734;-88
2022/05/14 09:39:40;;;;;;;10.72;3.22;;;;;;;17.74;52.06;101043.42;1745208;81;21034;-92
2022/05/14 09:42:22;;;;;;;12.35;3.83;;;;;;;17.60;52.63;101040.73;1760778;79;21074;-90
2022/05/14 09:44:51;;;;;;;12.65;3.60;;;;;;;17.51;52.82;101038.06;1780543;78;21098;-91
2022/05/14 09:47:31;;;;;;;9.05;3.33;;;;;;;17.55;53.10;101039.41;1775020;79;21077;-88
2022/05/14 09:50:05;;;;;;;11.97;3.83;;;;;;;17.52;52.92;101035.86;1774818;79;21699;-89
2022/05/14 09:52:36;;;;;;;11.70;4.05;;;;;;;17.53;53.30;101034.95;1779538;79;21543;-86
2022/05/14 09:55:08;;;;;;;14.93;4.37;;;;;;;17.59;53.38;101033.66;1824202;77;21047;-85
2022/05/14 09:57:49;;;;;;;13.83;4.20;;;;;;;17.68;53.17;101031.88;1790344;79;21090;-89
2022/05/14 10:00:28;;;;;;;11.28;3.72;;;;;;;17.84;53.06;101031.87;1773603;79;21277;-91
2022/05/14 10:03:21;;;;;;;10.13;3.12;;;;;;;18.15;53.04;101025.20;1799634;79;21781;-88
2022/05/14 10:06:49;;;;;;;8.93;4.40;;;;;;;18.52;52.53;101022.45;1779176;79;21129;-92
2022/05/14 10:09:54;;;;;;;15.60;3.50;;;;;;;18.67;52.21;101018.84;1806510;79;21036;-93
2022/05/14 10:13:01;;;;;;;11.57;3.95;;;;;;;18.69;51.39;101017.92;1804343;79;21030;-96
2022/05/14 10:16:09;;;;;;;11.30;3.83;;;;;;;18.78;51.49;101027.22;1748061;79;21213;-90
2022/05/14 10:19:20;;;;;;;10.93;3.55;;;;;;;18.72;50.98;101026.38;1755258;81;21818;-90
2022/05/14 10:29:54;;;;;;;15.85;5.15;;;;;;;18.91;50.74;101032.09;1802739;79;21068;-90
2022/05/14 10:32:24;;;;;;;14.78;4.53;;;;;;;18.98;50.33;101024.96;1780695;79;21062;-94
2022/05/14 10:35:09;;;;;;;10.90;3.52;;;;;;;18.93;50.41;101025.42;1778132;79;21660;-93
2022/05/14 10:37:44;;;;;;;11.78;3.27;;;;;;;18.92;50.21;101021.88;1776441;80;21006;-91
2022/05/14 10:41:08;;;;;;;11.57;3.40;;;;;;;19.04;50.05;101039.14;1787087;79;21508;-89
2022/05/14 10:44:05;;;;;;;10.15;3.70;;;;;;;18.90;49.46;101034.34;1807363;79;21040;-95
2022/05/14 10:46:34;;;;;;;11.35;3.77;;;;;;;18.69;49.67;101040.59;1797825;79;21128;-89
2022/05/14 10:49:15;;;;;;;12.13;3.83;;;;;;;18.74;49.34;101041.47;1785073;79;21768;-87
2022/05/14 10:56:40;;;;;;;11.40;3.27;;;;;;;19.00;49.13;101052.52;1776054;80;20994;-92
2022/05/14 10:59:09;;;;;;;10.63;3.02;;;;;;;18.99;49.01;101042.27;1803655;77;21035;-91
2022/05/14 11:02:05;;;;;;;14.03;4.08;;;;;;;19.20;48.33;101029.70;1792592;77;21042;-91
2022/05/14 11:04:47;;;;;;;11.63;3.30;;;;;;;19.27;48.32;101030.56;1794728;78;21842;-86
2022/05/14 11:07:30;;;;;;;12.65;3.83;;;;;;;19.26;48.07;101029.69;1807454;79;21512;-90
2022/05/14 11:10:14;;;;;;;10.83;3.60;;;;;;;19.11;48.00;101040.00;1809662;77;21679;-90
2022/05/14 11:12:41;;;;;;;8.53;2.67;;;;;;;19.02;47.92;101040.05;1797668;78;22979;-91
2022/05/14 11:15:25;;;;;;;10.88;3.02;;;;;;;19.08;47.83;101041.34;1793321;79;21194;-83
2022/05/14 11:18:04;;;;;;;11.15;4.33;;;;;;;19.24;47.13;101043.49;1784083;78;21757;-87
2022/05/14 11:20:31;;;;;;;7.60;3.62;;;;;;;19.21;46.87;101035.03;1812061;79;21696;-92
2022/05/14 11:23:12;;;;;;;10.05;3.20;;;;;;;19.33;46.99;101026.09;1811899;79;21064;-88
2022/05/14 11:25:46;;;;;;;6.97;3.15;;;;;;;19.46;47.10;101028.66;1799427;77;21047;-91
2022/05/14 11:28:25;;;;;;;;;;;;;;;19.57;47.12;101038.34;1787179;79;21047;-88
2022/05/14 11:31:42;;;;;;;11.33;3.85;;;;;;;19.71;46.76;101049.40;1794271;79;21408;-90
2022/05/14 11:35:00;;;;;;;8.60;4.42;;;;;;;19.70;46.59;101051.16;1684265;84;21665;-93
2022/05/14 11:37:39;;;;;;;8.53;3.52;;;;;;;19.70;46.41;101059.63;1683336;84;21066;-91
2022/05/14 11:40:23;;;;;;;10.08;3.40;;;;;;;19.59;46.52;101051.23;1679387;84;21064;-91
2022/05/14 11:43:11;;;;;;;9.98;4.75;;;;;;;19.50;46.31;101046.42;1717476;81;21042;-90
2022/05/14 11:45:41;;;;;;;13.00;4.10;;;;;;;19.28;46.23;101056.38;1675596;84;21781;-93
2022/05/14 11:48:20;;;;;;;11.22;3.90;;;;;;;19.26;46.39;101046.13;1659146;85;21074;-94
2022/05/14 11:51:00;;;;;;;7.42;2.83;;;;;;;19.36;46.39;101048.73;1695154;83;21067;-91
2022/05/14 11:53:44;;;;;;;10.80;3.83;;;;;;;19.48;46.47;101051.77;1623419;85;21112;-88
2022/05/14 11:56:32;;;;;;;9.38;3.35;;;;;;;19.47;46.16;101055.80;1703187;83;21040;-92
2022/05/14 11:59:09;;;;;;;9.18;3.30;;;;;;;19.26;45.85;101066.14;1649074;84;21892;-89
2022/05/14 12:01:39;;;;;;;6.83;2.70;;;;;;;19.18;45.97;101067.09;1731906;82;21083;-91
2022/05/14 12:04:14;;;;;;;12.10;3.55;;;;;;;19.30;46.13;101071.93;1728055;82;21064;-93
2022/05/14 12:06:53;;;;;;;12.63;3.45;;;;;;;19.47;46.07;101070.48;1722969;81;21113;-91
2022/05/14 12:09:51;;;;;;;10.80;2.77;;;;;;;19.53;45.81;101062.42;1698134;81;21133;-91
2022/05/14 12:12:48;;;;;;;9.65;2.70;;;;;;;19.70;45.88;101070.31;1728246;80;21764;-89
2022/05/14 12:15:38;;;;;;;9.68;3.52;;;;;;;19.71;45.47;101062.76;1653761;85;21102;-95
2022/05/14 12:18:10;;;;;;;10.82;3.58;;;;;;;19.64;45.44;101067.23;1638966;85;21095;-90
2022/05/14 12:20:37;;;;;;;10.05;2.90;;;;;;;19.61;45.47;101065.92;1624085;87;23559;-91
2022/05/14 12:23:44;;;;;;;9.10;3.47;;;;;;;19.51;45.24;101062.43;1643708;85;21096;-92
2022/05/14 12:26:29;;;;;;;10.80;3.42;;;;;;;19.32;45.01;101074.14;1643932;84;22621;-89
2022/05/14 12:29:13;;;;;;;6.70;2.45;;;;;;;18.89;44.86;101081.89;1608283;88;21140;-90
2022/05/14 12:34:37;;;;;;;9.98;3.08;;;;;;;18.79;45.62;101072.14;1643125;86;21074;-93
2022/05/14 12:37:17;;;;;;;10.10;3.27;;;;;;;18.90;45.77;101077.02;1645389;85;21172;-92
2022/05/14 12:39:46;;;;;;;8.45;3.77;;;;;;;19.12;45.78;101076.91;1648534;85;22583;-89
2022/05/14 12:42:17;;;;;;;9.55;2.83;;;;;;;19.35;45.46;101083.44;1646641;85;21394;-91